Аэропорт: Гумрак. Волгоград

ICAO: URWW

METAR:
2019/05/26 14:00
URWW 261400Z 21009MPS 9999 SCT026 21/13 Q1008 R24/010070 TEMPO -TSRAGR BKN020CB
METAR:
2015/12/24 15:15
TAF COR TAF COR URWW 241510Z 2415/2524 30013G18MPS 9999 BKN007 SCT020CB BKN100 
      TEMPO 2415/2421 27008G13MPS 2100 -SHRA BR